Beverly, Ohio
Current Conditions -  °F | °C
As of 10:53 AM on Saturday 25 Oct 2014 (Local Time) from KPKB Reporting Station
Broken Clouds Broken Clouds  
Wind Chill: 55°   Ceiling: 10000
Heat Index: 55°   Visibility: 10mi
Dew Point: 44°   Wind: 9mph
Humidity: 67%   Direction: 210°SSW
Pressure: 30.03"   Gusts: NA
Location:  39.55°N, 81.64°W
Report Text: KPKB 251453Z 21008KT 10SM BKN100 13/07 A3003 RMK AO2 SLP168 T01280067 57006
Loading
Personal Weather Stations






























Interactive Weather Map
Tropical Storm Tracking
New forecast layout! Learn more

10-Day Weather Forecast

Advertisements
Track Severe Weather on mobile